sensor_id;sensor_type;location;lat;lon;timestamp;P1;durP1;ratioP1;P2;durP2;ratioP2
40154;SDS011;25875;48.202;16.334;2023-02-12T00:02:23;19.80;;;16.15;;
40154;SDS011;25875;48.202;16.334;2023-02-12T00:04:50;18.35;;;15.43;;
40154;SDS011;25875;48.202;16.334;2023-02-12T00:07:17;18.70;;;14.45;;
40154;SDS011;25875;48.202;16.334;2023-02-12T00:09:44;18.58;;;14.93;;
40154;SDS011;25875;48.202;16.334;2023-02-12T00:12:12;20.15;;;16.42;;
40154;SDS011;25875;48.202;16.334;2023-02-12T00:14:38;19.00;;;14.90;;
40154;SDS011;25875;48.202;16.334;2023-02-12T00:17:05;17.45;;;14.63;;
40154;SDS011;25875;48.202;16.334;2023-02-12T00:19:32;18.80;;;14.73;;
40154;SDS011;25875;48.202;16.334;2023-02-12T00:21:59;18.52;;;14.82;;
40154;SDS011;25875;48.202;16.334;2023-02-12T00:24:25;19.00;;;14.57;;
40154;SDS011;25875;48.202;16.334;2023-02-12T00:26:52;19.77;;;15.45;;
40154;SDS011;25875;48.202;16.334;2023-02-12T00:29:20;19.90;;;14.85;;
40154;SDS011;25875;48.202;16.334;2023-02-12T00:31:47;17.38;;;12.95;;
40154;SDS011;25875;48.202;16.334;2023-02-12T00:34:14;18.85;;;14.57;;
40154;SDS011;25875;48.202;16.334;2023-02-12T00:36:40;18.70;;;13.52;;
40154;SDS011;25875;48.202;16.334;2023-02-12T00:39:08;18.83;;;14.38;;
40154;SDS011;25875;48.202;16.334;2023-02-12T00:41:35;16.50;;;13.80;;
40154;SDS011;25875;48.202;16.334;2023-02-12T00:44:02;17.75;;;14.32;;
40154;SDS011;25875;48.202;16.334;2023-02-12T00:46:31;19.00;;;14.52;;
40154;SDS011;25875;48.202;16.334;2023-02-12T00:48:57;18.65;;;13.25;;
40154;SDS011;25875;48.202;16.334;2023-02-12T00:51:24;17.75;;;14.05;;
40154;SDS011;25875;48.202;16.334;2023-02-12T00:53:51;16.65;;;13.38;;
40154;SDS011;25875;48.202;16.334;2023-02-12T00:56:18;18.55;;;14.32;;
40154;SDS011;25875;48.202;16.334;2023-02-12T00:58:44;19.52;;;14.10;;
40154;SDS011;25875;48.202;16.334;2023-02-12T01:01:11;16.73;;;13.77;;
40154;SDS011;25875;48.202;16.334;2023-02-12T01:03:39;18.52;;;14.43;;
40154;SDS011;25875;48.202;16.334;2023-02-12T01:06:06;16.15;;;13.15;;
40154;SDS011;25875;48.202;16.334;2023-02-12T01:08:33;16.05;;;12.63;;
40154;SDS011;25875;48.202;16.334;2023-02-12T01:11:00;15.88;;;12.25;;
40154;SDS011;25875;48.202;16.334;2023-02-12T01:13:29;16.90;;;13.15;;
40154;SDS011;25875;48.202;16.334;2023-02-12T01:16:00;18.58;;;13.27;;
40154;SDS011;25875;48.202;16.334;2023-02-12T01:18:28;18.10;;;13.55;;
40154;SDS011;25875;48.202;16.334;2023-02-12T01:20:56;16.42;;;13.82;;
40154;SDS011;25875;48.202;16.334;2023-02-12T01:23:23;19.02;;;15.20;;
40154;SDS011;25875;48.202;16.334;2023-02-12T01:25:50;16.98;;;13.75;;
40154;SDS011;25875;48.202;16.334;2023-02-12T01:28:17;15.30;;;12.82;;
40154;SDS011;25875;48.202;16.334;2023-02-12T01:30:43;17.98;;;13.63;;
40154;SDS011;25875;48.202;16.334;2023-02-12T01:33:10;17.65;;;13.38;;
40154;SDS011;25875;48.202;16.334;2023-02-12T01:35:37;18.80;;;14.38;;
40154;SDS011;25875;48.202;16.334;2023-02-12T01:38:05;18.08;;;13.80;;
40154;SDS011;25875;48.202;16.334;2023-02-12T01:40:32;18.20;;;13.73;;
40154;SDS011;25875;48.202;16.334;2023-02-12T01:42:59;16.30;;;13.10;;
40154;SDS011;25875;48.202;16.334;2023-02-12T01:45:44;16.95;;;13.75;;
40154;SDS011;25875;48.202;16.334;2023-02-12T01:48:18;17.17;;;12.73;;
40154;SDS011;25875;48.202;16.334;2023-02-12T01:50:47;16.98;;;14.10;;
40154;SDS011;25875;48.202;16.334;2023-02-12T01:53:17;18.45;;;13.60;;
40154;SDS011;25875;48.202;16.334;2023-02-12T01:55:47;18.70;;;13.63;;
40154;SDS011;25875;48.202;16.334;2023-02-12T01:58:16;20.60;;;15.23;;
40154;SDS011;25875;48.202;16.334;2023-02-12T02:00:43;17.17;;;12.02;;
40154;SDS011;25875;48.202;16.334;2023-02-12T02:03:10;18.92;;;14.75;;
40154;SDS011;25875;48.202;16.334;2023-02-12T02:05:40;17.38;;;14.02;;
40154;SDS011;25875;48.202;16.334;2023-02-12T02:08:11;18.40;;;14.23;;
40154;SDS011;25875;48.202;16.334;2023-02-12T02:10:39;16.67;;;12.85;;
40154;SDS011;25875;48.202;16.334;2023-02-12T02:13:06;16.27;;;12.70;;
40154;SDS011;25875;48.202;16.334;2023-02-12T02:15:52;18.15;;;13.27;;
40154;SDS011;25875;48.202;16.334;2023-02-12T02:18:23;15.73;;;13.05;;
40154;SDS011;25875;48.202;16.334;2023-02-12T02:23:56;16.17;;;12.55;;
40154;SDS011;25875;48.202;16.334;2023-02-12T02:26:56;17.58;;;13.10;;
40154;SDS011;25875;48.202;16.334;2023-02-12T02:30:12;17.77;;;13.60;;
40154;SDS011;25875;48.202;16.334;2023-02-12T02:32:58;16.42;;;14.30;;
40154;SDS011;25875;48.202;16.334;2023-02-12T02:35:39;17.17;;;13.75;;
40154;SDS011;25875;48.202;16.334;2023-02-12T02:40:48;16.30;;;12.90;;
40154;SDS011;25875;48.202;16.334;2023-02-12T02:43:22;19.85;;;13.80;;
40154;SDS011;25875;48.202;16.334;2023-02-12T02:45:55;20.20;;;16.05;;
40154;SDS011;25875;48.202;16.334;2023-02-12T02:48:29;18.88;;;14.30;;
40154;SDS011;25875;48.202;16.334;2023-02-12T02:51:00;15.95;;;13.85;;
40154;SDS011;25875;48.202;16.334;2023-02-12T02:53:32;18.70;;;14.02;;
40154;SDS011;25875;48.202;16.334;2023-02-12T02:56:02;16.67;;;13.88;;
40154;SDS011;25875;48.202;16.334;2023-02-12T02:58:34;18.65;;;14.27;;
40154;SDS011;25875;48.202;16.334;2023-02-12T03:01:06;19.55;;;15.57;;
40154;SDS011;25875;48.202;16.334;2023-02-12T03:03:39;19.17;;;14.60;;
40154;SDS011;25875;48.202;16.334;2023-02-12T03:06:10;19.85;;;15.90;;
40154;SDS011;25875;48.202;16.334;2023-02-12T03:11:16;19.75;;;14.35;;
40154;SDS011;25875;48.202;16.334;2023-02-12T03:13:48;18.85;;;14.68;;
40154;SDS011;25875;48.202;16.334;2023-02-12T03:16:23;19.38;;;15.57;;
40154;SDS011;25875;48.202;16.334;2023-02-12T03:18:53;17.40;;;13.63;;
40154;SDS011;25875;48.202;16.334;2023-02-12T03:21:26;18.65;;;14.23;;
40154;SDS011;25875;48.202;16.334;2023-02-12T03:23:56;19.13;;;14.10;;
40154;SDS011;25875;48.202;16.334;2023-02-12T03:26:32;19.27;;;15.88;;
40154;SDS011;25875;48.202;16.334;2023-02-12T03:29:05;21.33;;;16.45;;
40154;SDS011;25875;48.202;16.334;2023-02-12T03:31:34;18.58;;;14.73;;
40154;SDS011;25875;48.202;16.334;2023-02-12T03:34:10;22.48;;;17.45;;
40154;SDS011;25875;48.202;16.334;2023-02-12T03:36:45;20.63;;;15.77;;
40154;SDS011;25875;48.202;16.334;2023-02-12T03:39:19;22.00;;;16.42;;
40154;SDS011;25875;48.202;16.334;2023-02-12T03:41:53;23.20;;;18.70;;
40154;SDS011;25875;48.202;16.334;2023-02-12T03:44:28;22.20;;;16.40;;
40154;SDS011;25875;48.202;16.334;2023-02-12T03:47:11;23.95;;;18.13;;
40154;SDS011;25875;48.202;16.334;2023-02-12T03:49:47;22.88;;;17.23;;
40154;SDS011;25875;48.202;16.334;2023-02-12T03:52:18;21.73;;;16.45;;
40154;SDS011;25875;48.202;16.334;2023-02-12T03:54:45;23.20;;;17.35;;
40154;SDS011;25875;48.202;16.334;2023-02-12T03:57:13;21.63;;;16.58;;
40154;SDS011;25875;48.202;16.334;2023-02-12T03:59:43;19.05;;;15.70;;
40154;SDS011;25875;48.202;16.334;2023-02-12T04:02:12;22.92;;;17.42;;
40154;SDS011;25875;48.202;16.334;2023-02-12T04:04:40;21.63;;;16.13;;
40154;SDS011;25875;48.202;16.334;2023-02-12T04:07:07;22.52;;;17.38;;
40154;SDS011;25875;48.202;16.334;2023-02-12T04:09:34;25.60;;;18.77;;
40154;SDS011;25875;48.202;16.334;2023-02-12T04:12:06;20.83;;;16.98;;
40154;SDS011;25875;48.202;16.334;2023-02-12T04:14:43;21.38;;;16.58;;
40154;SDS011;25875;48.202;16.334;2023-02-12T04:17:19;20.88;;;17.55;;
40154;SDS011;25875;48.202;16.334;2023-02-12T04:19:55;23.33;;;17.27;;
40154;SDS011;25875;48.202;16.334;2023-02-12T04:22:33;24.02;;;17.38;;
40154;SDS011;25875;48.202;16.334;2023-02-12T04:25:11;20.75;;;17.55;;
40154;SDS011;25875;48.202;16.334;2023-02-12T04:27:46;21.38;;;15.88;;
40154;SDS011;25875;48.202;16.334;2023-02-12T04:30:20;20.95;;;16.33;;
40154;SDS011;25875;48.202;16.334;2023-02-12T04:32:51;23.65;;;16.63;;
40154;SDS011;25875;48.202;16.334;2023-02-12T04:35:22;22.52;;;16.35;;
40154;SDS011;25875;48.202;16.334;2023-02-12T04:37:57;23.77;;;16.77;;
40154;SDS011;25875;48.202;16.334;2023-02-12T04:40:27;19.83;;;15.13;;
40154;SDS011;25875;48.202;16.334;2023-02-12T04:42:55;20.98;;;16.10;;
40154;SDS011;25875;48.202;16.334;2023-02-12T04:45:23;22.67;;;17.40;;
40154;SDS011;25875;48.202;16.334;2023-02-12T04:47:53;22.23;;;15.63;;
40154;SDS011;25875;48.202;16.334;2023-02-12T04:50:20;19.73;;;15.57;;
40154;SDS011;25875;48.202;16.334;2023-02-12T04:52:47;21.40;;;16.90;;
40154;SDS011;25875;48.202;16.334;2023-02-12T04:55:14;22.88;;;17.15;;
40154;SDS011;25875;48.202;16.334;2023-02-12T04:57:41;19.08;;;15.07;;
40154;SDS011;25875;48.202;16.334;2023-02-12T05:00:10;19.08;;;15.23;;
40154;SDS011;25875;48.202;16.334;2023-02-12T05:02:38;22.23;;;17.17;;
40154;SDS011;25875;48.202;16.334;2023-02-12T05:05:06;21.27;;;16.58;;
40154;SDS011;25875;48.202;16.334;2023-02-12T05:07:33;18.83;;;14.73;;
40154;SDS011;25875;48.202;16.334;2023-02-12T05:10:00;21.13;;;15.38;;
40154;SDS011;25875;48.202;16.334;2023-02-12T05:12:26;20.35;;;15.73;;
40154;SDS011;25875;48.202;16.334;2023-02-12T05:14:53;19.63;;;16.15;;
40154;SDS011;25875;48.202;16.334;2023-02-12T05:17:20;21.67;;;16.67;;
40154;SDS011;25875;48.202;16.334;2023-02-12T05:19:47;20.90;;;16.90;;
40154;SDS011;25875;48.202;16.334;2023-02-12T05:22:16;23.40;;;15.68;;
40154;SDS011;25875;48.202;16.334;2023-02-12T05:24:43;26.10;;;18.65;;
40154;SDS011;25875;48.202;16.334;2023-02-12T05:27:10;20.38;;;16.40;;
40154;SDS011;25875;48.202;16.334;2023-02-12T05:29:36;19.40;;;15.48;;
40154;SDS011;25875;48.202;16.334;2023-02-12T05:32:03;23.33;;;16.75;;
40154;SDS011;25875;48.202;16.334;2023-02-12T05:34:32;21.63;;;16.60;;
40154;SDS011;25875;48.202;16.334;2023-02-12T05:36:59;20.90;;;15.98;;
40154;SDS011;25875;48.202;16.334;2023-02-12T05:39:27;22.02;;;15.90;;
40154;SDS011;25875;48.202;16.334;2023-02-12T05:41:54;28.98;;;17.73;;
40154;SDS011;25875;48.202;16.334;2023-02-12T05:44:20;22.23;;;17.40;;
40154;SDS011;25875;48.202;16.334;2023-02-12T05:46:47;21.10;;;15.25;;
40154;SDS011;25875;48.202;16.334;2023-02-12T05:49:14;21.05;;;16.60;;
40154;SDS011;25875;48.202;16.334;2023-02-12T05:51:41;22.83;;;17.70;;
40154;SDS011;25875;48.202;16.334;2023-02-12T05:54:08;21.25;;;17.33;;
40154;SDS011;25875;48.202;16.334;2023-02-12T05:56:38;23.95;;;18.10;;
40154;SDS011;25875;48.202;16.334;2023-02-12T05:59:11;25.50;;;18.17;;
40154;SDS011;25875;48.202;16.334;2023-02-12T06:01:41;22.92;;;18.15;;
40154;SDS011;25875;48.202;16.334;2023-02-12T06:04:09;26.38;;;18.30;;
40154;SDS011;25875;48.202;16.334;2023-02-12T06:06:39;22.60;;;16.60;;
40154;SDS011;25875;48.202;16.334;2023-02-12T06:09:06;23.88;;;17.10;;
40154;SDS011;25875;48.202;16.334;2023-02-12T06:11:33;23.92;;;18.27;;
40154;SDS011;25875;48.202;16.334;2023-02-12T06:14:02;21.38;;;17.60;;
40154;SDS011;25875;48.202;16.334;2023-02-12T06:16:29;24.85;;;19.00;;
40154;SDS011;25875;48.202;16.334;2023-02-12T06:18:56;24.40;;;18.38;;
40154;SDS011;25875;48.202;16.334;2023-02-12T06:21:24;24.05;;;18.85;;
40154;SDS011;25875;48.202;16.334;2023-02-12T06:23:51;25.35;;;17.75;;
40154;SDS011;25875;48.202;16.334;2023-02-12T06:26:19;27.40;;;18.58;;
40154;SDS011;25875;48.202;16.334;2023-02-12T06:28:47;23.35;;;17.50;;
40154;SDS011;25875;48.202;16.334;2023-02-12T06:31:20;26.00;;;18.17;;
40154;SDS011;25875;48.202;16.334;2023-02-12T06:33:48;23.05;;;18.15;;
40154;SDS011;25875;48.202;16.334;2023-02-12T06:36:15;23.95;;;17.50;;
40154;SDS011;25875;48.202;16.334;2023-02-12T06:38:42;24.27;;;19.17;;
40154;SDS011;25875;48.202;16.334;2023-02-12T06:41:09;24.90;;;18.85;;
40154;SDS011;25875;48.202;16.334;2023-02-12T06:43:36;23.02;;;16.52;;
40154;SDS011;25875;48.202;16.334;2023-02-12T06:46:03;25.70;;;19.27;;
40154;SDS011;25875;48.202;16.334;2023-02-12T06:48:33;24.40;;;19.15;;
40154;SDS011;25875;48.202;16.334;2023-02-12T06:51:03;22.77;;;17.70;;
40154;SDS011;25875;48.202;16.334;2023-02-12T06:53:32;22.92;;;16.95;;
40154;SDS011;25875;48.202;16.334;2023-02-12T06:55:59;24.33;;;18.23;;
40154;SDS011;25875;48.202;16.334;2023-02-12T06:58:26;21.95;;;16.58;;
40154;SDS011;25875;48.202;16.334;2023-02-12T07:00:53;25.25;;;19.17;;
40154;SDS011;25875;48.202;16.334;2023-02-12T07:03:20;22.48;;;17.77;;
40154;SDS011;25875;48.202;16.334;2023-02-12T07:05:48;24.30;;;18.83;;
40154;SDS011;25875;48.202;16.334;2023-02-12T07:08:15;22.95;;;17.33;;
40154;SDS011;25875;48.202;16.334;2023-02-12T07:10:41;25.73;;;20.02;;
40154;SDS011;25875;48.202;16.334;2023-02-12T07:13:08;22.80;;;18.63;;
40154;SDS011;25875;48.202;16.334;2023-02-12T07:15:37;23.92;;;16.63;;
40154;SDS011;25875;48.202;16.334;2023-02-12T07:18:04;22.30;;;18.02;;
40154;SDS011;25875;48.202;16.334;2023-02-12T07:20:31;20.92;;;16.05;;
40154;SDS011;25875;48.202;16.334;2023-02-12T07:22:59;23.02;;;17.27;;
40154;SDS011;25875;48.202;16.334;2023-02-12T07:25:26;25.00;;;16.90;;
40154;SDS011;25875;48.202;16.334;2023-02-12T07:27:52;19.95;;;16.88;;
40154;SDS011;25875;48.202;16.334;2023-02-12T07:30:19;25.25;;;19.20;;
40154;SDS011;25875;48.202;16.334;2023-02-12T07:32:46;23.48;;;18.65;;
40154;SDS011;25875;48.202;16.334;2023-02-12T07:35:13;24.42;;;17.65;;
40154;SDS011;25875;48.202;16.334;2023-02-12T07:37:39;22.77;;;17.50;;
40154;SDS011;25875;48.202;16.334;2023-02-12T07:40:08;23.40;;;19.40;;
40154;SDS011;25875;48.202;16.334;2023-02-12T07:42:35;25.83;;;18.35;;
40154;SDS011;25875;48.202;16.334;2023-02-12T07:45:02;22.95;;;17.52;;
40154;SDS011;25875;48.202;16.334;2023-02-12T07:47:29;22.17;;;16.42;;
40154;SDS011;25875;48.202;16.334;2023-02-12T07:49:56;24.85;;;17.58;;
40154;SDS011;25875;48.202;16.334;2023-02-12T07:52:22;22.10;;;16.05;;
40154;SDS011;25875;48.202;16.334;2023-02-12T07:54:49;24.35;;;18.02;;
40154;SDS011;25875;48.202;16.334;2023-02-12T07:57:17;24.42;;;17.65;;
40154;SDS011;25875;48.202;16.334;2023-02-12T07:59:44;20.13;;;15.93;;
40154;SDS011;25875;48.202;16.334;2023-02-12T08:02:11;25.55;;;17.60;;
40154;SDS011;25875;48.202;16.334;2023-02-12T08:04:38;23.05;;;17.20;;
40154;SDS011;25875;48.202;16.334;2023-02-12T08:07:04;20.05;;;15.75;;
40154;SDS011;25875;48.202;16.334;2023-02-12T08:09:31;22.00;;;16.27;;
40154;SDS011;25875;48.202;16.334;2023-02-12T08:11:58;20.40;;;15.35;;
40154;SDS011;25875;48.202;16.334;2023-02-12T08:14:26;20.80;;;17.27;;
40154;SDS011;25875;48.202;16.334;2023-02-12T08:16:53;20.40;;;16.10;;
40154;SDS011;25875;48.202;16.334;2023-02-12T08:19:20;23.90;;;15.90;;
40154;SDS011;25875;48.202;16.334;2023-02-12T08:21:48;23.80;;;16.70;;
40154;SDS011;25875;48.202;16.334;2023-02-12T08:24:15;19.85;;;15.18;;
40154;SDS011;25875;48.202;16.334;2023-02-12T08:26:41;21.23;;;16.02;;
40154;SDS011;25875;48.202;16.334;2023-02-12T08:29:10;21.77;;;15.77;;
40154;SDS011;25875;48.202;16.334;2023-02-12T08:31:40;20.50;;;16.50;;
40154;SDS011;25875;48.202;16.334;2023-02-12T08:34:13;20.50;;;15.73;;
40154;SDS011;25875;48.202;16.334;2023-02-12T08:36:42;20.48;;;15.50;;
40154;SDS011;25875;48.202;16.334;2023-02-12T08:39:10;19.27;;;15.10;;
40154;SDS011;25875;48.202;16.334;2023-02-12T08:41:37;20.42;;;16.42;;
40154;SDS011;25875;48.202;16.334;2023-02-12T08:44:06;19.65;;;13.77;;
40154;SDS011;25875;48.202;16.334;2023-02-12T08:46:34;20.92;;;16.08;;
40154;SDS011;25875;48.202;16.334;2023-02-12T08:49:04;20.30;;;15.07;;
40154;SDS011;25875;48.202;16.334;2023-02-12T08:51:33;19.65;;;16.38;;
40154;SDS011;25875;48.202;16.334;2023-02-12T08:54:02;18.58;;;14.57;;
40154;SDS011;25875;48.202;16.334;2023-02-12T08:56:30;18.83;;;14.55;;
40154;SDS011;25875;48.202;16.334;2023-02-12T08:58:58;19.85;;;14.82;;
40154;SDS011;25875;48.202;16.334;2023-02-12T09:01:27;18.25;;;13.75;;
40154;SDS011;25875;48.202;16.334;2023-02-12T09:03:55;19.10;;;15.63;;
40154;SDS011;25875;48.202;16.334;2023-02-12T09:06:23;18.48;;;14.88;;
40154;SDS011;25875;48.202;16.334;2023-02-12T09:08:52;19.80;;;14.23;;
40154;SDS011;25875;48.202;16.334;2023-02-12T09:11:20;17.90;;;13.57;;
40154;SDS011;25875;48.202;16.334;2023-02-12T09:13:54;18.23;;;14.82;;
40154;SDS011;25875;48.202;16.334;2023-02-12T09:16:22;17.40;;;13.82;;
40154;SDS011;25875;48.202;16.334;2023-02-12T09:18:48;22.13;;;16.42;;
40154;SDS011;25875;48.202;16.334;2023-02-12T09:21:15;19.80;;;15.77;;
40154;SDS011;25875;48.202;16.334;2023-02-12T09:23:45;22.95;;;16.73;;
40154;SDS011;25875;48.202;16.334;2023-02-12T09:26:13;20.75;;;15.35;;
40154;SDS011;25875;48.202;16.334;2023-02-12T09:28:41;19.23;;;15.57;;
40154;SDS011;25875;48.202;16.334;2023-02-12T09:31:09;19.40;;;15.45;;
40154;SDS011;25875;48.202;16.334;2023-02-12T09:33:38;20.42;;;16.08;;
40154;SDS011;25875;48.202;16.334;2023-02-12T09:36:07;20.15;;;16.77;;
40154;SDS011;25875;48.202;16.334;2023-02-12T09:38:35;18.48;;;13.32;;
40154;SDS011;25875;48.202;16.334;2023-02-12T09:44:04;18.38;;;13.02;;
40154;SDS011;25875;48.202;16.334;2023-02-12T09:46:38;17.58;;;13.00;;
40154;SDS011;25875;48.202;16.334;2023-02-12T09:49:12;17.02;;;13.93;;
40154;SDS011;25875;48.202;16.334;2023-02-12T09:51:44;16.40;;;12.65;;
40154;SDS011;25875;48.202;16.334;2023-02-12T09:54:16;14.90;;;12.02;;
40154;SDS011;25875;48.202;16.334;2023-02-12T09:56:47;16.83;;;12.20;;
40154;SDS011;25875;48.202;16.334;2023-02-12T09:59:19;17.02;;;12.75;;
40154;SDS011;25875;48.202;16.334;2023-02-12T10:01:56;14.55;;;12.73;;
40154;SDS011;25875;48.202;16.334;2023-02-12T10:04:23;15.38;;;12.43;;
40154;SDS011;25875;48.202;16.334;2023-02-12T10:06:53;15.85;;;12.38;;
40154;SDS011;25875;48.202;16.334;2023-02-12T10:09:34;17.05;;;12.77;;
40154;SDS011;25875;48.202;16.334;2023-02-12T10:12:17;13.25;;;11.40;;
40154;SDS011;25875;48.202;16.334;2023-02-12T10:14:58;16.25;;;12.77;;
40154;SDS011;25875;48.202;16.334;2023-02-12T10:17:45;18.08;;;13.65;;
40154;SDS011;25875;48.202;16.334;2023-02-12T10:23:37;14.07;;;11.10;;
40154;SDS011;25875;48.202;16.334;2023-02-12T10:26:19;14.77;;;11.27;;
40154;SDS011;25875;48.202;16.334;2023-02-12T10:28:50;19.05;;;12.43;;
40154;SDS011;25875;48.202;16.334;2023-02-12T10:31:20;16.77;;;12.27;;
40154;SDS011;25875;48.202;16.334;2023-02-12T10:36:25;11.55;;;9.88;;
40154;SDS011;25875;48.202;16.334;2023-02-12T10:38:59;20.13;;;13.95;;
40154;SDS011;25875;48.202;16.334;2023-02-12T10:41:29;20.42;;;16.48;;
40154;SDS011;25875;48.202;16.334;2023-02-12T10:43:58;17.25;;;12.77;;
40154;SDS011;25875;48.202;16.334;2023-02-12T10:46:27;15.13;;;13.10;;
40154;SDS011;25875;48.202;16.334;2023-02-12T10:48:56;12.88;;;10.70;;
40154;SDS011;25875;48.202;16.334;2023-02-12T10:51:44;13.13;;;10.95;;
40154;SDS011;25875;48.202;16.334;2023-02-12T10:54:33;14.10;;;9.97;;
40154;SDS011;25875;48.202;16.334;2023-02-12T10:57:07;12.70;;;10.63;;
40154;SDS011;25875;48.202;16.334;2023-02-12T10:59:37;11.55;;;10.02;;
40154;SDS011;25875;48.202;16.334;2023-02-12T11:02:16;11.15;;;8.85;;
40154;SDS011;25875;48.202;16.334;2023-02-12T11:04:49;11.52;;;9.50;;
40154;SDS011;25875;48.202;16.334;2023-02-12T11:07:17;9.52;;;8.52;;
40154;SDS011;25875;48.202;16.334;2023-02-12T11:09:45;12.07;;;9.70;;
40154;SDS011;25875;48.202;16.334;2023-02-12T11:12:16;15.73;;;12.05;;
40154;SDS011;25875;48.202;16.334;2023-02-12T11:14:52;16.52;;;11.00;;
40154;SDS011;25875;48.202;16.334;2023-02-12T11:17:24;12.52;;;10.35;;
40154;SDS011;25875;48.202;16.334;2023-02-12T11:20:00;12.27;;;9.70;;
40154;SDS011;25875;48.202;16.334;2023-02-12T11:22:30;13.70;;;10.32;;
40154;SDS011;25875;48.202;16.334;2023-02-12T11:24:58;12.45;;;10.02;;
40154;SDS011;25875;48.202;16.334;2023-02-12T11:27:28;11.55;;;9.65;;
40154;SDS011;25875;48.202;16.334;2023-02-12T11:32:49;10.70;;;9.05;;
40154;SDS011;25875;48.202;16.334;2023-02-12T11:35:17;13.40;;;10.10;;
40154;SDS011;25875;48.202;16.334;2023-02-12T11:37:52;16.58;;;9.98;;
40154;SDS011;25875;48.202;16.334;2023-02-12T11:40:22;13.38;;;10.25;;
40154;SDS011;25875;48.202;16.334;2023-02-12T11:42:52;12.13;;;10.93;;
40154;SDS011;25875;48.202;16.334;2023-02-12T11:45:25;13.52;;;10.05;;
40154;SDS011;25875;48.202;16.334;2023-02-12T11:47:58;12.20;;;10.38;;
40154;SDS011;25875;48.202;16.334;2023-02-12T11:50:27;11.43;;;9.98;;
40154;SDS011;25875;48.202;16.334;2023-02-12T11:52:56;11.90;;;10.18;;
40154;SDS011;25875;48.202;16.334;2023-02-12T11:55:26;12.73;;;10.02;;
40154;SDS011;25875;48.202;16.334;2023-02-12T11:58:00;13.95;;;10.27;;
40154;SDS011;25875;48.202;16.334;2023-02-12T12:00:31;15.20;;;10.68;;
40154;SDS011;25875;48.202;16.334;2023-02-12T12:03:05;12.48;;;9.90;;
40154;SDS011;25875;48.202;16.334;2023-02-12T12:05:39;14.38;;;10.60;;
40154;SDS011;25875;48.202;16.334;2023-02-12T12:08:13;12.33;;;10.13;;
40154;SDS011;25875;48.202;16.334;2023-02-12T12:10:46;13.00;;;9.02;;
40154;SDS011;25875;48.202;16.334;2023-02-12T12:13:18;12.48;;;10.07;;
40154;SDS011;25875;48.202;16.334;2023-02-12T12:15:49;12.35;;;9.95;;
40154;SDS011;25875;48.202;16.334;2023-02-12T12:18:42;12.07;;;10.30;;
40154;SDS011;25875;48.202;16.334;2023-02-12T12:21:35;16.33;;;12.27;;
40154;SDS011;25875;48.202;16.334;2023-02-12T12:24:08;14.52;;;11.27;;
40154;SDS011;25875;48.202;16.334;2023-02-12T12:26:43;18.65;;;13.20;;
40154;SDS011;25875;48.202;16.334;2023-02-12T12:29:25;14.10;;;11.20;;
40154;SDS011;25875;48.202;16.334;2023-02-12T12:32:08;14.30;;;11.68;;
40154;SDS011;25875;48.202;16.334;2023-02-12T12:34:42;16.75;;;13.05;;
40154;SDS011;25875;48.202;16.334;2023-02-12T12:40:02;14.45;;;11.73;;
40154;SDS011;25875;48.202;16.334;2023-02-12T12:42:49;14.18;;;11.85;;
40154;SDS011;25875;48.202;16.334;2023-02-12T12:45:48;16.52;;;11.13;;
40154;SDS011;25875;48.202;16.334;2023-02-12T12:48:35;13.50;;;10.88;;
40154;SDS011;25875;48.202;16.334;2023-02-12T12:51:21;16.85;;;12.50;;
40154;SDS011;25875;48.202;16.334;2023-02-12T12:56:36;15.15;;;11.88;;
40154;SDS011;25875;48.202;16.334;2023-02-12T12:59:19;15.15;;;12.05;;
40154;SDS011;25875;48.202;16.334;2023-02-12T13:05:18;14.65;;;12.10;;
40154;SDS011;25875;48.202;16.334;2023-02-12T13:08:25;12.90;;;10.80;;
40154;SDS011;25875;48.202;16.334;2023-02-12T13:11:06;10.27;;;8.73;;
40154;SDS011;25875;48.202;16.334;2023-02-12T13:13:46;13.77;;;10.35;;
40154;SDS011;25875;48.202;16.334;2023-02-12T13:16:16;10.73;;;8.82;;
40154;SDS011;25875;48.202;16.334;2023-02-12T13:18:50;13.18;;;11.43;;
40154;SDS011;25875;48.202;16.334;2023-02-12T13:21:30;16.25;;;11.40;;
40154;SDS011;25875;48.202;16.334;2023-02-12T13:24:06;12.60;;;10.48;;
40154;SDS011;25875;48.202;16.334;2023-02-12T13:26:48;15.38;;;11.68;;
40154;SDS011;25875;48.202;16.334;2023-02-12T13:29:22;15.98;;;11.63;;
40154;SDS011;25875;48.202;16.334;2023-02-12T13:31:55;13.57;;;12.15;;
40154;SDS011;25875;48.202;16.334;2023-02-12T13:34:28;14.93;;;12.00;;
40154;SDS011;25875;48.202;16.334;2023-02-12T13:36:59;15.93;;;12.90;;
40154;SDS011;25875;48.202;16.334;2023-02-12T13:39:33;17.83;;;13.10;;
40154;SDS011;25875;48.202;16.334;2023-02-12T13:42:04;15.68;;;13.23;;
40154;SDS011;25875;48.202;16.334;2023-02-12T13:44:45;15.90;;;12.32;;
40154;SDS011;25875;48.202;16.334;2023-02-12T13:47:25;17.77;;;12.65;;
40154;SDS011;25875;48.202;16.334;2023-02-12T13:50:00;17.65;;;13.65;;
40154;SDS011;25875;48.202;16.334;2023-02-12T13:52:35;16.45;;;13.07;;
40154;SDS011;25875;48.202;16.334;2023-02-12T13:55:16;18.15;;;13.70;;
40154;SDS011;25875;48.202;16.334;2023-02-12T14:00:59;21.17;;;14.32;;
40154;SDS011;25875;48.202;16.334;2023-02-12T14:03:28;18.10;;;12.20;;
40154;SDS011;25875;48.202;16.334;2023-02-12T14:06:10;16.75;;;12.85;;
40154;SDS011;25875;48.202;16.334;2023-02-12T14:08:44;17.85;;;14.00;;
40154;SDS011;25875;48.202;16.334;2023-02-12T14:11:16;16.33;;;13.00;;
40154;SDS011;25875;48.202;16.334;2023-02-12T14:13:48;16.23;;;12.38;;
40154;SDS011;25875;48.202;16.334;2023-02-12T14:25:40;14.73;;;11.93;;
40154;SDS011;25875;48.202;16.334;2023-02-12T14:37:13;16.58;;;12.70;;
40154;SDS011;25875;48.202;16.334;2023-02-12T14:42:58;18.08;;;13.18;;
40154;SDS011;25875;48.202;16.334;2023-02-12T14:45:32;16.55;;;12.82;;
40154;SDS011;25875;48.202;16.334;2023-02-12T14:48:01;17.45;;;13.27;;
40154;SDS011;25875;48.202;16.334;2023-02-12T14:50:36;17.70;;;14.00;;
40154;SDS011;25875;48.202;16.334;2023-02-12T14:53:11;17.45;;;14.43;;
40154;SDS011;25875;48.202;16.334;2023-02-12T14:55:53;18.35;;;13.50;;
40154;SDS011;25875;48.202;16.334;2023-02-12T14:58:23;17.85;;;13.25;;
40154;SDS011;25875;48.202;16.334;2023-02-12T15:00:58;16.98;;;13.73;;
40154;SDS011;25875;48.202;16.334;2023-02-12T15:03:31;17.65;;;14.13;;
40154;SDS011;25875;48.202;16.334;2023-02-12T15:06:09;15.43;;;12.23;;
40154;SDS011;25875;48.202;16.334;2023-02-12T15:08:42;15.43;;;12.02;;
40154;SDS011;25875;48.202;16.334;2023-02-12T15:11:16;16.52;;;13.18;;
40154;SDS011;25875;48.202;16.334;2023-02-12T15:13:52;18.42;;;13.45;;
40154;SDS011;25875;48.202;16.334;2023-02-12T15:16:28;18.30;;;14.77;;
40154;SDS011;25875;48.202;16.334;2023-02-12T15:19:06;17.05;;;12.88;;
40154;SDS011;25875;48.202;16.334;2023-02-12T15:21:53;18.67;;;14.48;;
40154;SDS011;25875;48.202;16.334;2023-02-12T15:24:21;16.13;;;12.65;;
40154;SDS011;25875;48.202;16.334;2023-02-12T15:26:50;17.02;;;12.95;;